sensor_id;sensor_type;location;lat;lon;timestamp;temperature;humidity
7216;DHT22;3649;48.798;9.798;2023-03-01T00:01:13;4.50;99.60
7216;DHT22;3649;48.798;9.798;2023-03-01T00:03:40;4.60;99.60
7216;DHT22;3649;48.798;9.798;2023-03-01T00:06:07;4.60;99.50
7216;DHT22;3649;48.798;9.798;2023-03-01T00:08:35;4.60;99.50
7216;DHT22;3649;48.798;9.798;2023-03-01T00:11:06;4.70;99.50
7216;DHT22;3649;48.798;9.798;2023-03-01T00:13:34;4.60;99.50
7216;DHT22;3649;48.798;9.798;2023-03-01T00:16:07;4.60;99.50
7216;DHT22;3649;48.798;9.798;2023-03-01T00:18:34;4.50;99.50
7216;DHT22;3649;48.798;9.798;2023-03-01T00:21:01;4.50;99.50
7216;DHT22;3649;48.798;9.798;2023-03-01T00:23:28;4.50;99.50
7216;DHT22;3649;48.798;9.798;2023-03-01T00:25:55;4.50;99.40
7216;DHT22;3649;48.798;9.798;2023-03-01T00:28:22;4.50;99.50
7216;DHT22;3649;48.798;9.798;2023-03-01T00:30:49;4.40;99.60
7216;DHT22;3649;48.798;9.798;2023-03-01T00:33:16;4.40;99.70
7216;DHT22;3649;48.798;9.798;2023-03-01T00:35:44;4.30;99.70
7216;DHT22;3649;48.798;9.798;2023-03-01T00:38:10;4.40;99.70
7216;DHT22;3649;48.798;9.798;2023-03-01T00:40:37;4.50;99.60
7216;DHT22;3649;48.798;9.798;2023-03-01T00:43:04;4.50;99.60
7216;DHT22;3649;48.798;9.798;2023-03-01T00:45:32;4.50;99.50
7216;DHT22;3649;48.798;9.798;2023-03-01T00:47:59;4.50;99.60
7216;DHT22;3649;48.798;9.798;2023-03-01T00:50:26;4.50;99.60
7216;DHT22;3649;48.798;9.798;2023-03-01T00:52:56;4.60;99.50
7216;DHT22;3649;48.798;9.798;2023-03-01T00:55:23;4.60;99.50
7216;DHT22;3649;48.798;9.798;2023-03-01T00:57:50;4.60;99.50
7216;DHT22;3649;48.798;9.798;2023-03-01T01:00:18;4.60;99.50
7216;DHT22;3649;48.798;9.798;2023-03-01T01:02:45;4.70;99.50
7216;DHT22;3649;48.798;9.798;2023-03-01T01:05:13;4.70;99.40
7216;DHT22;3649;48.798;9.798;2023-03-01T01:07:39;4.70;99.40
7216;DHT22;3649;48.798;9.798;2023-03-01T01:10:07;4.70;99.40
7216;DHT22;3649;48.798;9.798;2023-03-01T01:12:34;4.60;99.40
7216;DHT22;3649;48.798;9.798;2023-03-01T01:15:01;4.80;99.60
7216;DHT22;3649;48.798;9.798;2023-03-01T01:17:28;4.60;99.50
7216;DHT22;3649;48.798;9.798;2023-03-01T01:19:54;4.70;99.50
7216;DHT22;3649;48.798;9.798;2023-03-01T01:22:21;4.80;99.50
7216;DHT22;3649;48.798;9.798;2023-03-01T01:24:48;4.80;99.40
7216;DHT22;3649;48.798;9.798;2023-03-01T01:27:15;4.80;99.50
7216;DHT22;3649;48.798;9.798;2023-03-01T01:29:42;4.80;99.40
7216;DHT22;3649;48.798;9.798;2023-03-01T01:32:08;5.90;99.90
7216;DHT22;3649;48.798;9.798;2023-03-01T01:34:35;4.80;99.50
7216;DHT22;3649;48.798;9.798;2023-03-01T01:37:02;4.80;99.50
7216;DHT22;3649;48.798;9.798;2023-03-01T01:39:29;4.80;99.60
7216;DHT22;3649;48.798;9.798;2023-03-01T01:41:56;4.80;99.60
7216;DHT22;3649;48.798;9.798;2023-03-01T01:44:25;4.80;99.60
7216;DHT22;3649;48.798;9.798;2023-03-01T01:47:05;4.90;99.70
7216;DHT22;3649;48.798;9.798;2023-03-01T01:49:40;4.90;99.70
7216;DHT22;3649;48.798;9.798;2023-03-01T01:52:33;4.90;99.70
7216;DHT22;3649;48.798;9.798;2023-03-01T02:00:10;5.00;99.70
7216;DHT22;3649;48.798;9.798;2023-03-01T02:02:38;5.00;99.60
7216;DHT22;3649;48.798;9.798;2023-03-01T02:08:05;5.00;99.70
7216;DHT22;3649;48.798;9.798;2023-03-01T02:10:34;5.00;99.70
7216;DHT22;3649;48.798;9.798;2023-03-01T02:13:02;5.10;99.70
7216;DHT22;3649;48.798;9.798;2023-03-01T02:15:34;5.10;99.60
7216;DHT22;3649;48.798;9.798;2023-03-01T02:18:02;5.20;99.70
7216;DHT22;3649;48.798;9.798;2023-03-01T02:22:56;5.20;99.70
7216;DHT22;3649;48.798;9.798;2023-03-01T02:30:50;5.10;99.70
7216;DHT22;3649;48.798;9.798;2023-03-01T02:33:38;5.10;99.80
7216;DHT22;3649;48.798;9.798;2023-03-01T02:36:10;5.10;99.70
7216;DHT22;3649;48.798;9.798;2023-03-01T02:38:40;5.00;99.70
7216;DHT22;3649;48.798;9.798;2023-03-01T02:41:08;5.10;99.80
7216;DHT22;3649;48.798;9.798;2023-03-01T02:43:37;5.00;99.70
7216;DHT22;3649;48.798;9.798;2023-03-01T02:46:14;5.00;99.70
7216;DHT22;3649;48.798;9.798;2023-03-01T02:48:48;5.10;99.70
7216;DHT22;3649;48.798;9.798;2023-03-01T02:56:41;5.10;99.60
7216;DHT22;3649;48.798;9.798;2023-03-01T02:59:09;5.10;99.70
7216;DHT22;3649;48.798;9.798;2023-03-01T03:01:36;5.10;99.70
7216;DHT22;3649;48.798;9.798;2023-03-01T03:04:08;5.20;99.60
7216;DHT22;3649;48.798;9.798;2023-03-01T03:06:36;5.20;99.60
7216;DHT22;3649;48.798;9.798;2023-03-01T03:09:04;5.20;99.60
7216;DHT22;3649;48.798;9.798;2023-03-01T03:11:31;5.20;99.60
7216;DHT22;3649;48.798;9.798;2023-03-01T03:13:58;5.20;99.70
7216;DHT22;3649;48.798;9.798;2023-03-01T03:16:25;5.10;99.60
7216;DHT22;3649;48.798;9.798;2023-03-01T03:18:52;5.20;99.70
7216;DHT22;3649;48.798;9.798;2023-03-01T03:21:19;5.10;99.70
7216;DHT22;3649;48.798;9.798;2023-03-01T03:23:46;5.10;99.70
7216;DHT22;3649;48.798;9.798;2023-03-01T03:26:12;5.30;99.80
7216;DHT22;3649;48.798;9.798;2023-03-01T03:28:41;5.10;99.70
7216;DHT22;3649;48.798;9.798;2023-03-01T03:31:08;5.10;99.70
7216;DHT22;3649;48.798;9.798;2023-03-01T03:33:35;5.20;99.80
7216;DHT22;3649;48.798;9.798;2023-03-01T03:36:03;5.30;99.70
7216;DHT22;3649;48.798;9.798;2023-03-01T03:38:30;5.20;99.70
7216;DHT22;3649;48.798;9.798;2023-03-01T03:41:07;5.30;99.70
7216;DHT22;3649;48.798;9.798;2023-03-01T03:43:36;5.30;99.60
7216;DHT22;3649;48.798;9.798;2023-03-01T03:46:04;5.30;99.70
7216;DHT22;3649;48.798;9.798;2023-03-01T03:48:36;5.30;99.60
7216;DHT22;3649;48.798;9.798;2023-03-01T03:51:03;5.30;99.70
7216;DHT22;3649;48.798;9.798;2023-03-01T03:53:32;5.30;99.60
7216;DHT22;3649;48.798;9.798;2023-03-01T03:55:59;5.20;99.70
7216;DHT22;3649;48.798;9.798;2023-03-01T03:58:26;5.30;99.70
7216;DHT22;3649;48.798;9.798;2023-03-01T04:00:55;5.30;99.60
7216;DHT22;3649;48.798;9.798;2023-03-01T04:03:24;5.30;99.70
7216;DHT22;3649;48.798;9.798;2023-03-01T04:05:52;5.20;99.70
7216;DHT22;3649;48.798;9.798;2023-03-01T04:08:21;6.70;99.90
7216;DHT22;3649;48.798;9.798;2023-03-01T04:10:50;5.10;99.70
7216;DHT22;3649;48.798;9.798;2023-03-01T04:13:22;5.20;99.70
7216;DHT22;3649;48.798;9.798;2023-03-01T04:15:50;5.20;99.70
7216;DHT22;3649;48.798;9.798;2023-03-01T04:18:19;5.20;99.70
7216;DHT22;3649;48.798;9.798;2023-03-01T04:20:47;5.10;99.70
7216;DHT22;3649;48.798;9.798;2023-03-01T04:23:18;5.20;99.90
7216;DHT22;3649;48.798;9.798;2023-03-01T04:25:55;5.20;99.80
7216;DHT22;3649;48.798;9.798;2023-03-01T04:28:31;5.20;99.80
7216;DHT22;3649;48.798;9.798;2023-03-01T04:31:03;5.10;99.80
7216;DHT22;3649;48.798;9.798;2023-03-01T04:33:47;5.10;99.90
7216;DHT22;3649;48.798;9.798;2023-03-01T04:36:16;5.20;99.90
7216;DHT22;3649;48.798;9.798;2023-03-01T04:38:43;5.20;99.90
7216;DHT22;3649;48.798;9.798;2023-03-01T04:41:16;5.20;99.90
7216;DHT22;3649;48.798;9.798;2023-03-01T04:43:43;5.20;99.80
7216;DHT22;3649;48.798;9.798;2023-03-01T04:46:13;5.30;99.90
7216;DHT22;3649;48.798;9.798;2023-03-01T04:48:42;5.40;99.80
7216;DHT22;3649;48.798;9.798;2023-03-01T04:51:10;5.30;99.80
7216;DHT22;3649;48.798;9.798;2023-03-01T04:53:41;5.40;99.80
7216;DHT22;3649;48.798;9.798;2023-03-01T04:56:08;5.40;99.80
7216;DHT22;3649;48.798;9.798;2023-03-01T04:58:35;5.40;99.60
7216;DHT22;3649;48.798;9.798;2023-03-01T05:01:13;5.40;99.70
7216;DHT22;3649;48.798;9.798;2023-03-01T05:03:44;5.40;99.80
7216;DHT22;3649;48.798;9.798;2023-03-01T05:06:11;5.30;99.70
7216;DHT22;3649;48.798;9.798;2023-03-01T05:08:39;6.70;99.90
7216;DHT22;3649;48.798;9.798;2023-03-01T05:11:06;5.30;99.80
7216;DHT22;3649;48.798;9.798;2023-03-01T05:13:39;5.30;99.70
7216;DHT22;3649;48.798;9.798;2023-03-01T05:16:07;5.30;99.80
7216;DHT22;3649;48.798;9.798;2023-03-01T05:18:39;5.30;99.80
7216;DHT22;3649;48.798;9.798;2023-03-01T05:21:12;5.40;99.90
7216;DHT22;3649;48.798;9.798;2023-03-01T05:23:39;5.30;99.70
7216;DHT22;3649;48.798;9.798;2023-03-01T05:26:07;5.30;99.70
7216;DHT22;3649;48.798;9.798;2023-03-01T05:28:47;5.20;99.90
7216;DHT22;3649;48.798;9.798;2023-03-01T05:31:15;5.20;99.90
7216;DHT22;3649;48.798;9.798;2023-03-01T05:33:42;5.10;99.90
7216;DHT22;3649;48.798;9.798;2023-03-01T05:36:10;5.10;99.90
7216;DHT22;3649;48.798;9.798;2023-03-01T05:38:37;5.10;99.90
7216;DHT22;3649;48.798;9.798;2023-03-01T05:41:04;5.10;99.90
7216;DHT22;3649;48.798;9.798;2023-03-01T05:43:31;5.10;99.90
7216;DHT22;3649;48.798;9.798;2023-03-01T05:46:00;5.10;99.90
7216;DHT22;3649;48.798;9.798;2023-03-01T05:48:28;5.20;99.90
7216;DHT22;3649;48.798;9.798;2023-03-01T05:50:59;5.10;99.90
7216;DHT22;3649;48.798;9.798;2023-03-01T05:53:27;5.20;99.90
7216;DHT22;3649;48.798;9.798;2023-03-01T05:55:54;5.20;99.90
7216;DHT22;3649;48.798;9.798;2023-03-01T05:58:20;5.20;99.90
7216;DHT22;3649;48.798;9.798;2023-03-01T06:00:48;5.20;99.90
7216;DHT22;3649;48.798;9.798;2023-03-01T06:03:16;5.20;99.90
7216;DHT22;3649;48.798;9.798;2023-03-01T06:05:44;5.20;99.90
7216;DHT22;3649;48.798;9.798;2023-03-01T06:08:12;5.70;99.90
7216;DHT22;3649;48.798;9.798;2023-03-01T06:10:39;5.20;99.90
7216;DHT22;3649;48.798;9.798;2023-03-01T06:13:07;5.20;99.90
7216;DHT22;3649;48.798;9.798;2023-03-01T06:15:34;5.20;99.90
7216;DHT22;3649;48.798;9.798;2023-03-01T06:18:01;5.20;99.90
7216;DHT22;3649;48.798;9.798;2023-03-01T06:20:28;5.20;99.90
7216;DHT22;3649;48.798;9.798;2023-03-01T06:22:55;5.20;99.90
7216;DHT22;3649;48.798;9.798;2023-03-01T06:25:24;5.10;99.90
7216;DHT22;3649;48.798;9.798;2023-03-01T06:27:51;5.10;99.90
7216;DHT22;3649;48.798;9.798;2023-03-01T06:30:22;5.10;99.90
7216;DHT22;3649;48.798;9.798;2023-03-01T06:32:49;5.10;99.90
7216;DHT22;3649;48.798;9.798;2023-03-01T06:35:17;5.00;99.90
7216;DHT22;3649;48.798;9.798;2023-03-01T06:37:46;5.00;99.90
7216;DHT22;3649;48.798;9.798;2023-03-01T06:40:14;5.00;99.90
7216;DHT22;3649;48.798;9.798;2023-03-01T06:42:47;4.90;99.90
7216;DHT22;3649;48.798;9.798;2023-03-01T06:45:16;4.90;99.90
7216;DHT22;3649;48.798;9.798;2023-03-01T06:47:43;4.80;99.90
7216;DHT22;3649;48.798;9.798;2023-03-01T06:50:11;4.80;99.80
7216;DHT22;3649;48.798;9.798;2023-03-01T06:52:38;4.70;99.80
7216;DHT22;3649;48.798;9.798;2023-03-01T06:55:05;4.70;99.90
7216;DHT22;3649;48.798;9.798;2023-03-01T06:57:32;4.70;99.80
7216;DHT22;3649;48.798;9.798;2023-03-01T06:59:59;4.60;99.90
7216;DHT22;3649;48.798;9.798;2023-03-01T07:02:26;4.60;99.70
7216;DHT22;3649;48.798;9.798;2023-03-01T07:04:53;4.60;99.80
7216;DHT22;3649;48.798;9.798;2023-03-01T07:07:20;4.60;99.50
7216;DHT22;3649;48.798;9.798;2023-03-01T07:09:48;4.50;99.80
7216;DHT22;3649;48.798;9.798;2023-03-01T07:12:15;4.50;99.70
7216;DHT22;3649;48.798;9.798;2023-03-01T07:14:44;4.40;99.80
7216;DHT22;3649;48.798;9.798;2023-03-01T07:17:11;4.40;99.90
7216;DHT22;3649;48.798;9.798;2023-03-01T07:19:38;4.40;99.90
7216;DHT22;3649;48.798;9.798;2023-03-01T07:22:05;4.50;99.80
7216;DHT22;3649;48.798;9.798;2023-03-01T07:24:34;4.70;99.80
7216;DHT22;3649;48.798;9.798;2023-03-01T07:27:01;4.50;99.70
7216;DHT22;3649;48.798;9.798;2023-03-01T07:29:28;4.60;99.60
7216;DHT22;3649;48.798;9.798;2023-03-01T07:31:55;4.60;99.70
7216;DHT22;3649;48.798;9.798;2023-03-01T07:34:22;4.70;99.60
7216;DHT22;3649;48.798;9.798;2023-03-01T07:36:51;4.80;99.60
7216;DHT22;3649;48.798;9.798;2023-03-01T07:39:18;4.80;99.50
7216;DHT22;3649;48.798;9.798;2023-03-01T07:41:57;5.20;99.70
7216;DHT22;3649;48.798;9.798;2023-03-01T07:44:24;4.80;99.40
7216;DHT22;3649;48.798;9.798;2023-03-01T07:46:51;5.00;99.30
7216;DHT22;3649;48.798;9.798;2023-03-01T07:49:23;5.00;99.20
7216;DHT22;3649;48.798;9.798;2023-03-01T07:51:49;6.70;99.90
7216;DHT22;3649;48.798;9.798;2023-03-01T07:54:16;5.20;99.20
7216;DHT22;3649;48.798;9.798;2023-03-01T07:56:44;5.20;99.00
7216;DHT22;3649;48.798;9.798;2023-03-01T07:59:11;6.70;99.90
7216;DHT22;3649;48.798;9.798;2023-03-01T08:01:38;5.30;98.90
7216;DHT22;3649;48.798;9.798;2023-03-01T08:04:05;5.50;98.90
7216;DHT22;3649;48.798;9.798;2023-03-01T08:06:34;5.60;98.80
7216;DHT22;3649;48.798;9.798;2023-03-01T08:09:02;5.60;98.80
7216;DHT22;3649;48.798;9.798;2023-03-01T08:11:29;5.70;98.70
7216;DHT22;3649;48.798;9.798;2023-03-01T08:13:56;5.80;98.60
7216;DHT22;3649;48.798;9.798;2023-03-01T08:16:23;5.80;98.60
7216;DHT22;3649;48.798;9.798;2023-03-01T08:18:50;5.90;98.50
7216;DHT22;3649;48.798;9.798;2023-03-01T08:21:18;6.00;98.50
7216;DHT22;3649;48.798;9.798;2023-03-01T08:23:45;6.00;98.40
7216;DHT22;3649;48.798;9.798;2023-03-01T08:26:17;6.10;98.40
7216;DHT22;3649;48.798;9.798;2023-03-01T08:28:46;7.70;99.00
7216;DHT22;3649;48.798;9.798;2023-03-01T08:31:18;6.40;98.20
7216;DHT22;3649;48.798;9.798;2023-03-01T08:33:47;6.40;98.10
7216;DHT22;3649;48.798;9.798;2023-03-01T08:36:33;6.50;98.10
7216;DHT22;3649;48.798;9.798;2023-03-01T08:39:01;6.60;98.00
7216;DHT22;3649;48.798;9.798;2023-03-01T08:41:29;6.60;98.00
7216;DHT22;3649;48.798;9.798;2023-03-01T08:43:56;6.70;97.90
7216;DHT22;3649;48.798;9.798;2023-03-01T08:46:32;6.70;97.80
7216;DHT22;3649;48.798;9.798;2023-03-01T08:49:00;6.80;97.70
7216;DHT22;3649;48.798;9.798;2023-03-01T08:51:27;6.70;97.70
7216;DHT22;3649;48.798;9.798;2023-03-01T08:53:55;6.60;97.70
7216;DHT22;3649;48.798;9.798;2023-03-01T08:56:22;6.60;97.80
7216;DHT22;3649;48.798;9.798;2023-03-01T08:58:49;6.60;97.80
7216;DHT22;3649;48.798;9.798;2023-03-01T09:01:17;6.60;97.80
7216;DHT22;3649;48.798;9.798;2023-03-01T09:03:45;6.60;97.90
7216;DHT22;3649;48.798;9.798;2023-03-01T09:06:13;6.60;97.70
7216;DHT22;3649;48.798;9.798;2023-03-01T09:08:48;6.60;97.80
7216;DHT22;3649;48.798;9.798;2023-03-01T09:11:17;8.00;98.30
7216;DHT22;3649;48.798;9.798;2023-03-01T09:13:46;5.40;97.30
7216;DHT22;3649;48.798;9.798;2023-03-01T09:16:14;6.70;97.80
7216;DHT22;3649;48.798;9.798;2023-03-01T09:18:42;6.80;97.80
7216;DHT22;3649;48.798;9.798;2023-03-01T09:21:14;6.90;97.80
7216;DHT22;3649;48.798;9.798;2023-03-01T09:23:43;7.00;97.70
7216;DHT22;3649;48.798;9.798;2023-03-01T09:26:21;7.10;97.80
7216;DHT22;3649;48.798;9.798;2023-03-01T09:28:50;7.10;97.80
7216;DHT22;3649;48.798;9.798;2023-03-01T09:31:20;7.10;97.60
7216;DHT22;3649;48.798;9.798;2023-03-01T09:33:48;7.10;97.60
7216;DHT22;3649;48.798;9.798;2023-03-01T09:36:20;7.10;97.50
7216;DHT22;3649;48.798;9.798;2023-03-01T09:38:49;7.20;97.40
7216;DHT22;3649;48.798;9.798;2023-03-01T09:43:52;7.30;97.00
7216;DHT22;3649;48.798;9.798;2023-03-01T09:46:23;7.30;96.80
7216;DHT22;3649;48.798;9.798;2023-03-01T09:48:56;7.40;96.60
7216;DHT22;3649;48.798;9.798;2023-03-01T09:51:29;7.40;96.50
7216;DHT22;3649;48.798;9.798;2023-03-01T09:53:57;7.40;96.30
7216;DHT22;3649;48.798;9.798;2023-03-01T09:56:45;7.40;96.50
7216;DHT22;3649;48.798;9.798;2023-03-01T10:04:39;7.30;96.50
7216;DHT22;3649;48.798;9.798;2023-03-01T10:09:57;7.30;96.40
7216;DHT22;3649;48.798;9.798;2023-03-01T10:12:30;7.30;96.60
7216;DHT22;3649;48.798;9.798;2023-03-01T10:17:43;7.30;96.60
7216;DHT22;3649;48.798;9.798;2023-03-01T10:20:24;7.30;96.60
7216;DHT22;3649;48.798;9.798;2023-03-01T10:22:52;7.70;96.60
7216;DHT22;3649;48.798;9.798;2023-03-01T10:25:43;7.40;96.60
7216;DHT22;3649;48.798;9.798;2023-03-01T10:29:13;8.60;97.10
7216;DHT22;3649;48.798;9.798;2023-03-01T10:31:27;7.40;96.60
7216;DHT22;3649;48.798;9.798;2023-03-01T10:34:19;7.50;96.60
7216;DHT22;3649;48.798;9.798;2023-03-01T10:37:01;7.60;96.40
7216;DHT22;3649;48.798;9.798;2023-03-01T10:39:28;7.60;96.60
7216;DHT22;3649;48.798;9.798;2023-03-01T10:44:39;8.10;96.90
7216;DHT22;3649;48.798;9.798;2023-03-01T10:47:16;7.90;96.80
7216;DHT22;3649;48.798;9.798;2023-03-01T10:50:04;7.60;96.60
7216;DHT22;3649;48.798;9.798;2023-03-01T10:52:36;7.70;96.60
7216;DHT22;3649;48.798;9.798;2023-03-01T10:57:40;7.60;96.80
7216;DHT22;3649;48.798;9.798;2023-03-01T11:00:22;7.70;96.70
7216;DHT22;3649;48.798;9.798;2023-03-01T11:05:25;7.90;96.80
7216;DHT22;3649;48.798;9.798;2023-03-01T11:07:57;7.90;96.70
7216;DHT22;3649;48.798;9.798;2023-03-01T11:10:30;8.00;96.90
7216;DHT22;3649;48.798;9.798;2023-03-01T11:15:39;8.30;96.80
7216;DHT22;3649;48.798;9.798;2023-03-01T11:18:21;8.20;96.40
7216;DHT22;3649;48.798;9.798;2023-03-01T11:21:03;8.10;96.60
7216;DHT22;3649;48.798;9.798;2023-03-01T11:23:32;8.10;96.60
7216;DHT22;3649;48.798;9.798;2023-03-01T11:26:02;8.10;96.60
7216;DHT22;3649;48.798;9.798;2023-03-01T11:28:32;8.20;96.60
7216;DHT22;3649;48.798;9.798;2023-03-01T11:31:08;8.30;96.70
7216;DHT22;3649;48.798;9.798;2023-03-01T11:33:57;8.30;96.70
7216;DHT22;3649;48.798;9.798;2023-03-01T11:36:42;8.30;96.50
7216;DHT22;3649;48.798;9.798;2023-03-01T11:42:11;8.30;96.90
7216;DHT22;3649;48.798;9.798;2023-03-01T11:44:59;8.40;96.90
7216;DHT22;3649;48.798;9.798;2023-03-01T11:50:23;8.50;96.90
7216;DHT22;3649;48.798;9.798;2023-03-01T11:55:45;8.60;96.80
7216;DHT22;3649;48.798;9.798;2023-03-01T11:58:33;8.60;96.60
7216;DHT22;3649;48.798;9.798;2023-03-01T12:06:38;8.70;96.70
7216;DHT22;3649;48.798;9.798;2023-03-01T12:09:21;8.70;96.40
7216;DHT22;3649;48.798;9.798;2023-03-01T12:15:04;8.70;96.70
7216;DHT22;3649;48.798;9.798;2023-03-01T12:20:31;8.90;96.50
7216;DHT22;3649;48.798;9.798;2023-03-01T12:31:32;9.10;96.40
7216;DHT22;3649;48.798;9.798;2023-03-01T12:40:02;9.20;96.10
7216;DHT22;3649;48.798;9.798;2023-03-01T12:43:05;9.30;96.20
7216;DHT22;3649;48.798;9.798;2023-03-01T12:45:50;9.20;96.20
7216;DHT22;3649;48.798;9.798;2023-03-01T12:48:25;9.20;96.30
7216;DHT22;3649;48.798;9.798;2023-03-01T12:50:59;9.20;96.30
7216;DHT22;3649;48.798;9.798;2023-03-01T12:53:44;9.20;96.40
7216;DHT22;3649;48.798;9.798;2023-03-01T12:56:15;9.20;96.30
7216;DHT22;3649;48.798;9.798;2023-03-01T13:06:57;9.30;96.40
7216;DHT22;3649;48.798;9.798;2023-03-01T13:09:38;9.30;96.40
7216;DHT22;3649;48.798;9.798;2023-03-01T13:12:42;9.30;96.60
7216;DHT22;3649;48.798;9.798;2023-03-01T13:20:52;9.30;96.80
7216;DHT22;3649;48.798;9.798;2023-03-01T13:31:03;9.30;96.90
7216;DHT22;3649;48.798;9.798;2023-03-01T13:36:03;9.40;96.80
7216;DHT22;3649;48.798;9.798;2023-03-01T13:41:50;9.40;96.70
7216;DHT22;3649;48.798;9.798;2023-03-01T13:44:37;9.40;96.80
7216;DHT22;3649;48.798;9.798;2023-03-01T13:50:03;10.30;96.80
7216;DHT22;3649;48.798;9.798;2023-03-01T13:52:43;9.60;96.70
7216;DHT22;3649;48.798;9.798;2023-03-01T13:55:42;9.60;96.60
7216;DHT22;3649;48.798;9.798;2023-03-01T14:00:46;9.60;96.40
7216;DHT22;3649;48.798;9.798;2023-03-01T14:08:39;9.70;96.40
7216;DHT22;3649;48.798;9.798;2023-03-01T14:11:21;9.60;96.30
7216;DHT22;3649;48.798;9.798;2023-03-01T14:19:18;9.60;96.40
7216;DHT22;3649;48.798;9.798;2023-03-01T14:24:49;9.70;96.70
7216;DHT22;3649;48.798;9.798;2023-03-01T14:27:17;9.70;96.40
7216;DHT22;3649;48.798;9.798;2023-03-01T14:30:01;9.80;96.40
7216;DHT22;3649;48.798;9.798;2023-03-01T14:32:31;9.90;96.50
7216;DHT22;3649;48.798;9.798;2023-03-01T14:34:59;9.90;96.20
7216;DHT22;3649;48.798;9.798;2023-03-01T14:37:30;10.00;95.70
7216;DHT22;3649;48.798;9.798;2023-03-01T14:39:59;9.90;95.90
7216;DHT22;3649;48.798;9.798;2023-03-01T14:42:31;9.80;95.90
7216;DHT22;3649;48.798;9.798;2023-03-01T14:45:00;9.90;95.90
7216;DHT22;3649;48.798;9.798;2023-03-01T14:47:29;9.90;95.90
7216;DHT22;3649;48.798;9.798;2023-03-01T14:50:02;10.00;95.50
7216;DHT22;3649;48.798;9.798;2023-03-01T14:52:41;11.50;96.00
7216;DHT22;3649;48.798;9.798;2023-03-01T14:55:21;10.00;95.40
7216;DHT22;3649;48.798;9.798;2023-03-01T14:57:51;10.00;95.30
7216;DHT22;3649;48.798;9.798;2023-03-01T15:00:22;10.10;95.10
7216;DHT22;3649;48.798;9.798;2023-03-01T15:02:51;10.20;95.10
7216;DHT22;3649;48.798;9.798;2023-03-01T15:05:27;10.40;95.10
7216;DHT22;3649;48.798;9.798;2023-03-01T15:07:57;10.70;95.20
7216;DHT22;3649;48.798;9.798;2023-03-01T15:10:33;10.60;95.00
7216;DHT22;3649;48.798;9.798;2023-03-01T15:13:11;10.60;94.90
7216;DHT22;3649;48.798;9.798;2023-03-01T15:15:43;10.60;94.80
7216;DHT22;3649;48.798;9.798;2023-03-01T15:18:21;10.60;94.70
7216;DHT22;3649;48.798;9.798;2023-03-01T15:20:50;10.50;94.70
7216;DHT22;3649;48.798;9.798;2023-03-01T15:23:26;10.50;94.90
7216;DHT22;3649;48.798;9.798;2023-03-01T15:25:54;10.40;95.00
7216;DHT22;3649;48.798;9.798;2023-03-01T15:28:34;10.40;94.90
7216;DHT22;3649;48.798;9.798;2023-03-01T15:33:38;10.30;95.00
7216;DHT22;3649;48.798;9.798;2023-03-01T15:36:33;10.20;95.00
7216;DHT22;3649;48.798;9.798;2023-03-01T15:39:01;10.20;95.20
7216;DHT22;3649;48.798;9.798;2023-03-01T15:41:36;10.20;95.10
7216;DHT22;3649;48.798;9.798;2023-03-01T15:44:27;10.20;95.30
7216;DHT22;3649;48.798;9.798;2023-03-01T15:47:31;10.10;95.10
7216;DHT22;3649;48.798;9.798;2023-03-01T15:49:59;10.10;95.30
7216;DHT22;3649;48.798;9.798;2023-03-01T15:52:32;10.10;95.30
7216;DHT22;3649;48.798;9.798;2023-03-01T15:55:07;10.10;95.10
7216;DHT22;3649;48.798;9.798;2023-03-01T15:57:40;10.10;95.30
7216;DHT22;3649;48.798;9.798;2023-03-01T16:00:11;10.10;95.30
7216;DHT22;3649;48.798;9.798;2023-03-01T16:02:41;10.20;95.40
7216;DHT22;3649;48.798;9.798;2023-03-01T16:05:30;10.10;95.40
7216;DHT22;3649;48.798;9.798;2023-03-01T16:07:58;10.10;95.60
7216;DHT22;3649;48.798;9.798;2023-03-01T16:10:25;10.10;95.50
7216;DHT22;3649;48.798;9.798;2023-03-01T16:12:52;10.10;95.50
7216;DHT22;3649;48.798;9.798;2023-03-01T16:15:28;10.10;95.50
7216;DHT22;3649;48.798;9.798;2023-03-01T16:17:58;10.10;95.70
7216;DHT22;3649;48.798;9.798;2023-03-01T16:20:25;10.20;95.80
7216;DHT22;3649;48.798;9.798;2023-03-01T16:23:03;10.20;95.50
7216;DHT22;3649;48.798;9.798;2023-03-01T16:25:32;10.10;95.60
7216;DHT22;3649;48.798;9.798;2023-03-01T16:27:59;10.10;95.80
7216;DHT22;3649;48.798;9.798;2023-03-01T16:30:30;10.00;95.70
7216;DHT22;3649;48.798;9.798;2023-03-01T16:32:57;10.80;96.20
7216;DHT22;3649;48.798;9.798;2023-03-01T16:35:25;10.10;95.50
7216;DHT22;3649;48.798;9.798;2023-03-01T16:37:52;10.00;95.50
7216;DHT22;3649;48.798;9.798;2023-03-01T16:40:28;10.00;95.40
7216;DHT22;3649;48.798;9.798;2023-03-01T16:42:56;10.00;95.50
7216;DHT22;3649;48.798;9.798;2023-03-01T16:45:34;9.90;96.00
7216;DHT22;3649;48.798;9.798;2023-03-01T16:48:03;9.90;96.00
7216;DHT22;3649;48.798;9.798;2023-03-01T16:50:29;9.80;96.10
7216;DHT22;3649;48.798;9.798;2023-03-01T16:52:59;9.80;96.10
7216;DHT22;3649;48.798;9.798;2023-03-01T16:55:27;9.80;96.20
7216;DHT22;3649;48.798;9.798;2023-03-01T16:57:53;9.80;96.30
7216;DHT22;3649;48.798;9.798;2023-03-01T17:00:20;10.00;95.80
7216;DHT22;3649;48.798;9.798;2023-03-01T17:02:47;9.70;96.20
7216;DHT22;3649;48.798;9.798;2023-03-01T17:05:14;9.80;96.40
7216;DHT22;3649;48.798;9.798;2023-03-01T17:07:41;9.70;96.40
7216;DHT22;3649;48.798;9.798;2023-03-01T17:10:10;9.60;96.40
7216;DHT22;3649;48.798;9.798;2023-03-01T17:12:37;9.60;96.40
7216;DHT22;3649;48.798;9.798;2023-03-01T17:15:05;9.60;96.50
7216;DHT22;3649;48.798;9.798;2023-03-01T17:17:33;9.60;96.40
7216;DHT22;3649;48.798;9.798;2023-03-01T17:20:01;10.60;96.40
7216;DHT22;3649;48.798;9.798;2023-03-01T17:22:30;9.50;96.50
7216;DHT22;3649;48.798;9.798;2023-03-01T17:24:57;9.50;96.50
7216;DHT22;3649;48.798;9.798;2023-03-01T17:27:24;9.50;96.60
7216;DHT22;3649;48.798;9.798;2023-03-01T17:29:51;9.50;96.70
7216;DHT22;3649;48.798;9.798;2023-03-01T17:32:18;9.50;97.00
7216;DHT22;3649;48.798;9.798;2023-03-01T17:34:45;9.40;96.70
7216;DHT22;3649;48.798;9.798;2023-03-01T17:37:12;9.40;96.60
7216;DHT22;3649;48.798;9.798;2023-03-01T17:39:39;9.90;97.00
7216;DHT22;3649;48.798;9.798;2023-03-01T17:42:06;9.40;96.70
7216;DHT22;3649;48.798;9.798;2023-03-01T17:44:33;9.40;96.70
7216;DHT22;3649;48.798;9.798;2023-03-01T17:47:01;9.30;96.70
7216;DHT22;3649;48.798;9.798;2023-03-01T17:49:32;9.20;96.80
7216;DHT22;3649;48.798;9.798;2023-03-01T17:51:59;9.20;96.90
7216;DHT22;3649;48.798;9.798;2023-03-01T17:54:26;9.20;97.10
7216;DHT22;3649;48.798;9.798;2023-03-01T17:56:55;10.10;97.10
7216;DHT22;3649;48.798;9.798;2023-03-01T17:59:21;9.80;97.70
7216;DHT22;3649;48.798;9.798;2023-03-01T18:01:48;9.80;97.90
7216;DHT22;3649;48.798;9.798;2023-03-01T18:04:15;9.00;97.60
7216;DHT22;3649;48.798;9.798;2023-03-01T18:06:44;8.90;97.60
7216;DHT22;3649;48.798;9.798;2023-03-01T18:09:10;9.10;97.60
7216;DHT22;3649;48.798;9.798;2023-03-01T18:11:37;9.70;98.00
7216;DHT22;3649;48.798;9.798;2023-03-01T18:14:05;8.80;97.60
7216;DHT22;3649;48.798;9.798;2023-03-01T18:16:32;8.80;97.80
7216;DHT22;3649;48.798;9.798;2023-03-01T18:19:02;8.70;97.90
7216;DHT22;3649;48.798;9.798;2023-03-01T18:21:29;9.80;98.50
7216;DHT22;3649;48.798;9.798;2023-03-01T18:23:57;8.60;98.00
7216;DHT22;3649;48.798;9.798;2023-03-01T18:26:25;8.50;98.00
7216;DHT22;3649;48.798;9.798;2023-03-01T18:28:53;8.50;98.10
7216;DHT22;3649;48.798;9.798;2023-03-01T18:31:23;8.40;98.20
7216;DHT22;3649;48.798;9.798;2023-03-01T18:33:52;8.40;98.30
7216;DHT22;3649;48.798;9.798;2023-03-01T18:36:23;8.30;98.50
7216;DHT22;3649;48.798;9.798;2023-03-01T18:38:51;8.30;98.60
7216;DHT22;3649;48.798;9.798;2023-03-01T18:41:26;8.30;98.70
7216;DHT22;3649;48.798;9.798;2023-03-01T18:43:54;8.30;98.70
7216;DHT22;3649;48.798;9.798;2023-03-01T18:46:22;8.30;98.70
7216;DHT22;3649;48.798;9.798;2023-03-01T18:48:51;8.20;98.70